Startpagina
METAR-TAF:

METAR-TAF

Vliegvelden :

Groningen, Nederland

Groningen Airport Eelde

breedte: 53-08N, lengte: 006-35E, hoogte: 4 m

Actueel weer

Dit bericht is 35 minuten geleden gemaakt, om 09:55 UTC
Wind 8 kt uit het zuiden, variërend tussen het zuidoosten en het zuidzuidwesten
Temperatuur 17°C
Vochtigheid 68%
Druk 1019 hPa
Zicht 10 km of meer

METAR: EHGG 210955Z AUTO 18008KT 140V210 9999 NCD 17/11 Q1019 NOSIG

Tijdstip: 12:30 (10:30 UTC)

Verwachting

Dit bericht is 5 uur en het 39 minuten geleden gemaakt, om 04:51 UTC
Verwachting geldig van 21 om 06 UTC tot 22 om 12 UTC
Wind 6 kt uit het zuiden
Zicht 10 km of meer
Gebroken wolken op 4000 ft
Kans 40%
van 21 om 06 UTC tot 21 om 08 UTC
Zicht: 7000 m
Wijzigt naar
van 21 om 22 UTC tot 22 om 01 UTC
Zicht: 7000 m
Ondiepe mist
Kans 30% :
Tijdelijke
van 22 om 00 UTC tot 22 om 07 UTC
Zicht: 1200 m
mistbanken

TAF: EHGG 210451Z 2106/2212 19006KT 9999 BKN040 PROB40 2106/2108 7000 BECMG 2122/2201 7000 MIFG PROB30 TEMPO 2200/2207 1200 BCFG

Waarnemingen en weersverwachtingen van meer dan 4000 vliegvelden (METAR en TAF).

De beschikbare stations zijn de gele en rode punten op de kaart.

Ga met uw muis naar het station om de naam te zien.

Klik dan om waarnemingen en weersverwachtingen te zien.

kaart wijzigen: klik op de groene knoppen met een zwart kruis om in te zoomen, op de groene knop met een streepje om uit te zoomen of op de groene pijlen voor aangrenzende kaarten.


METAR-TAF: